TKJ8AZ LTAJ-LTAC
Flight info
| Callsign | TKJ8AZ |
|---|---|
| Flight time | N/A |
| Altitude | 34000 |
| Route | POGEN UL605 REMPO UA17 RATSI UL605 BELSU UA17 YUCEL |
| Aircraft | B738/M-SDE2E3FGHIRWXY/LB1 |
Departure
| Time | 2026-04-30 21:37 |
|---|---|
| Airport | Gaziantep Oğuzeli International Airport (LTAJ) |
Arrival
| Time | N/A |
|---|---|
| Airport | Esenboğa International Airport (LTAC) |
| Time | Latitude | Longitude | Altitude | Speed | Heading |
|---|---|---|---|---|---|
| 2026-04-30 21:20 | 36.94522 | 37.47721 | 2319 ft | 0 kts | 195° |
| 2026-04-30 21:28 | 36.94526 | 37.47723 | 2319 ft | 2 kts | 195° |
| 2026-04-30 21:29 | 36.94540 | 37.47727 | 2319 ft | 2 kts | 195° |
| 2026-04-30 21:29 | 36.94579 | 37.47728 | 2319 ft | 2 kts | 155° |
| 2026-04-30 21:30 | 36.94600 | 37.47702 | 2319 ft | 2 kts | 116° |
| 2026-04-30 21:31 | 36.94605 | 37.47686 | 2319 ft | 0 kts | 105° |
| 2026-04-30 21:32 | 36.94604 | 37.47688 | 2319 ft | 1 kts | 105° |
| 2026-04-30 21:32 | 36.94597 | 37.47723 | 2319 ft | 6 kts | 106° |
| 2026-04-30 21:32 | 36.94603 | 37.47783 | 2319 ft | 9 kts | 26° |
| 2026-04-30 21:33 | 36.94638 | 37.47853 | 2319 ft | 13 kts | 104° |
| 2026-04-30 21:33 | 36.94578 | 37.48124 | 2319 ft | 19 kts | 105° |
| 2026-04-30 21:33 | 36.94540 | 37.48302 | 2319 ft | 22 kts | 105° |
| 2026-04-30 21:34 | 36.94493 | 37.48506 | 2319 ft | 25 kts | 107° |
| 2026-04-30 21:34 | 36.94404 | 37.48917 | 2319 ft | 21 kts | 106° |
| 2026-04-30 21:34 | 36.94367 | 37.49085 | 2319 ft | 19 kts | 105° |
| 2026-04-30 21:35 | 36.94328 | 37.49263 | 2319 ft | 22 kts | 105° |
| 2026-04-30 21:35 | 36.94350 | 37.49409 | 2319 ft | 15 kts | 19° |
| 2026-04-30 21:35 | 36.94444 | 37.49437 | 2319 ft | 11 kts | 0° |
| 2026-04-30 21:35 | 36.94482 | 37.49371 | 2319 ft | 8 kts | 289° |
| 2026-04-30 21:36 | 36.94494 | 37.49312 | 2319 ft | 6 kts | 284° |
| 2026-04-30 21:36 | 36.94546 | 37.49072 | 2319 ft | 64 kts | 285° |
| 2026-04-30 21:37 | 36.95330 | 37.45423 | 3369 ft | 175 kts | 285° |
| 2026-04-30 21:37 | 36.95626 | 37.43931 | 4026 ft | 185 kts | 283° |
| 2026-04-30 21:37 | 36.95904 | 37.42313 | 4483 ft | 199 kts | 281° |
| 2026-04-30 21:37 | 36.96184 | 37.40549 | 4941 ft | 216 kts | 280° |
| 2026-04-30 21:38 | 36.96474 | 37.38636 | 5452 ft | 230 kts | 281° |
| 2026-04-30 21:38 | 36.96797 | 37.36678 | 6059 ft | 241 kts | 281° |
| 2026-04-30 21:38 | 36.97210 | 37.34569 | 6598 ft | 254 kts | 283° |
| 2026-04-30 21:38 | 36.97655 | 37.32441 | 7384 ft | 257 kts | 282° |
| 2026-04-30 21:39 | 36.98083 | 37.30285 | 8037 ft | 266 kts | 281° |
| 2026-04-30 21:39 | 36.98521 | 37.27950 | 8557 ft | 281 kts | 281° |
| 2026-04-30 21:39 | 36.98958 | 37.25562 | 8974 ft | 287 kts | 281° |
| 2026-04-30 21:39 | 36.99497 | 37.23141 | 9208 ft | 299 kts | 294° |
| 2026-04-30 21:40 | 37.00738 | 37.21128 | 10255 ft | 295 kts | 315° |
| 2026-04-30 21:40 | 37.02333 | 37.19454 | 10751 ft | 309 kts | 321° |
| 2026-04-30 21:40 | 37.04107 | 37.17765 | 11219 ft | 325 kts | 321° |
| 2026-04-30 21:40 | 37.05927 | 37.16001 | 11631 ft | 340 kts | 320° |
| 2026-04-30 21:41 | 37.07798 | 37.14122 | 12178 ft | 352 kts | 319° |
| 2026-04-30 21:41 | 37.09052 | 37.12834 | 12683 ft | 354 kts | 319° |
| 2026-04-30 21:41 | 37.11599 | 37.10182 | 13670 ft | 359 kts | 318° |
| 2026-04-30 21:41 | 37.13528 | 37.08160 | 14378 ft | 363 kts | 318° |
| 2026-04-30 21:42 | 37.15463 | 37.06129 | 15076 ft | 367 kts | 318° |
| 2026-04-30 21:42 | 37.17427 | 37.04066 | 15756 ft | 371 kts | 318° |
| 2026-04-30 21:42 | 37.19415 | 37.01979 | 16444 ft | 375 kts | 318° |
| 2026-04-30 21:42 | 37.21398 | 36.99875 | 17092 ft | 379 kts | 317° |
| 2026-04-30 21:43 | 37.23332 | 36.97621 | 17759 ft | 382 kts | 314° |
| 2026-04-30 21:43 | 37.24579 | 36.96066 | 18159 ft | 384 kts | 313° |
| 2026-04-30 21:43 | 37.27072 | 36.92871 | 19016 ft | 388 kts | 313° |
| 2026-04-30 21:43 | 37.28986 | 36.90427 | 19631 ft | 391 kts | 313° |
| 2026-04-30 21:44 | 37.30915 | 36.87999 | 20230 ft | 394 kts | 314° |
| 2026-04-30 21:44 | 37.32838 | 36.85603 | 20804 ft | 397 kts | 314° |
| 2026-04-30 21:44 | 37.34831 | 36.83131 | 21373 ft | 401 kts | 314° |
| 2026-04-30 21:44 | 37.36809 | 36.80680 | 21925 ft | 403 kts | 314° |
| 2026-04-30 21:45 | 37.38815 | 36.78199 | 22465 ft | 406 kts | 314° |
| 2026-04-30 21:45 | 37.40825 | 36.75711 | 22997 ft | 409 kts | 314° |
| 2026-04-30 21:45 | 37.42843 | 36.73210 | 23500 ft | 412 kts | 314° |
| 2026-04-30 21:45 | 37.44895 | 36.70664 | 24013 ft | 415 kts | 314° |
| 2026-04-30 21:46 | 37.46962 | 36.68098 | 24510 ft | 418 kts | 314° |
| 2026-04-30 21:46 | 37.49010 | 36.65553 | 24981 ft | 421 kts | 314° |
| 2026-04-30 21:46 | 37.51094 | 36.62963 | 25456 ft | 423 kts | 314° |
| 2026-04-30 21:46 | 37.53211 | 36.60327 | 25927 ft | 426 kts | 314° |
| 2026-04-30 21:47 | 37.55314 | 36.57706 | 26395 ft | 428 kts | 314° |
| 2026-04-30 21:47 | 37.57406 | 36.55098 | 26841 ft | 430 kts | 314° |
| 2026-04-30 21:47 | 37.59535 | 36.52441 | 27299 ft | 432 kts | 314° |
| 2026-04-30 21:47 | 37.61692 | 36.49745 | 27726 ft | 435 kts | 314° |
| 2026-04-30 21:48 | 37.63819 | 36.47084 | 28170 ft | 437 kts | 314° |
| 2026-04-30 21:48 | 37.66005 | 36.44348 | 28598 ft | 439 kts | 314° |
| 2026-04-30 21:48 | 37.68173 | 36.41633 | 29013 ft | 442 kts | 314° |
| 2026-04-30 21:48 | 37.70326 | 36.38932 | 29453 ft | 443 kts | 314° |
| 2026-04-30 21:49 | 37.72488 | 36.36221 | 30131 ft | 438 kts | 314° |
| 2026-04-30 21:49 | 37.74664 | 36.33488 | 30658 ft | 436 kts | 313° |
| 2026-04-30 21:49 | 37.76794 | 36.30810 | 31202 ft | 434 kts | 313° |
| 2026-04-30 21:49 | 37.78927 | 36.28127 | 31699 ft | 433 kts | 313° |
| 2026-04-30 21:50 | 37.81041 | 36.25464 | 32199 ft | 431 kts | 313° |
| 2026-04-30 21:50 | 37.83162 | 36.22787 | 32684 ft | 429 kts | 313° |
| 2026-04-30 21:50 | 37.85251 | 36.20089 | 33144 ft | 427 kts | 311° |
| 2026-04-30 21:50 | 37.87254 | 36.17325 | 33568 ft | 426 kts | 310° |
| 2026-04-30 21:51 | 37.89205 | 36.14527 | 33983 ft | 425 kts | 309° |
| 2026-04-30 21:51 | 37.91167 | 36.11670 | 34120 ft | 428 kts | 309° |
| 2026-04-30 21:51 | 37.95079 | 36.05975 | 34130 ft | 424 kts | 309° |
| 2026-04-30 21:52 | 37.99031 | 36.00264 | 34126 ft | 425 kts | 309° |
| 2026-04-30 21:52 | 38.02942 | 35.94639 | 34129 ft | 424 kts | 309° |
| 2026-04-30 21:53 | 38.06844 | 35.89032 | 34133 ft | 422 kts | 309° |
| 2026-04-30 21:53 | 38.10733 | 35.83438 | 34133 ft | 421 kts | 309° |
| 2026-04-30 21:54 | 38.14593 | 35.77880 | 34129 ft | 420 kts | 309° |
| 2026-04-30 21:54 | 38.18453 | 35.72311 | 34121 ft | 420 kts | 309° |
| 2026-04-30 21:55 | 38.22288 | 35.66770 | 34124 ft | 420 kts | 309° |
| 2026-04-30 21:55 | 38.26160 | 35.61164 | 34120 ft | 420 kts | 309° |
| 2026-04-30 21:56 | 38.30019 | 35.55568 | 34121 ft | 419 kts | 309° |
| 2026-04-30 21:56 | 38.33855 | 35.49995 | 34120 ft | 419 kts | 309° |
| 2026-04-30 21:57 | 38.37666 | 35.44449 | 34122 ft | 419 kts | 309° |
| 2026-04-30 21:57 | 38.41499 | 35.38862 | 34115 ft | 417 kts | 309° |
| 2026-04-30 21:58 | 38.45299 | 35.33313 | 34109 ft | 417 kts | 309° |
| 2026-04-30 21:58 | 38.49118 | 35.27726 | 34099 ft | 417 kts | 309° |
| 2026-04-30 21:59 | 38.52931 | 35.22135 | 34088 ft | 416 kts | 308° |
| 2026-04-30 22:00 | 38.58508 | 35.13747 | 34092 ft | 415 kts | 308° |
| 2026-04-30 22:00 | 38.64066 | 35.05303 | 34091 ft | 414 kts | 308° |
| 2026-04-30 22:01 | 38.67780 | 34.99663 | 34081 ft | 412 kts | 308° |
| 2026-04-30 22:01 | 38.71493 | 34.94018 | 34070 ft | 413 kts | 308° |
| 2026-04-30 22:02 | 38.75176 | 34.88412 | 34051 ft | 414 kts | 308° |
| 2026-04-30 22:02 | 38.78883 | 34.82760 | 34048 ft | 413 kts | 308° |
| 2026-04-30 22:03 | 38.82574 | 34.77124 | 34046 ft | 412 kts | 308° |
| 2026-04-30 22:03 | 38.86239 | 34.71518 | 34049 ft | 412 kts | 308° |
| 2026-04-30 22:04 | 38.89906 | 34.65896 | 34040 ft | 411 kts | 308° |
| 2026-04-30 22:05 | 38.95391 | 34.57473 | 34041 ft | 412 kts | 308° |
| 2026-04-30 22:05 | 38.99050 | 34.51840 | 34037 ft | 411 kts | 307° |
| 2026-04-30 22:06 | 39.02713 | 34.46194 | 34030 ft | 412 kts | 307° |
| 2026-04-30 22:06 | 39.08208 | 34.37700 | 34022 ft | 410 kts | 307° |
| 2026-04-30 22:07 | 39.11622 | 34.31888 | 34014 ft | 408 kts | 301° |
| 2026-04-30 22:07 | 39.14726 | 34.25819 | 34012 ft | 408 kts | 304° |
| 2026-04-30 22:08 | 39.18333 | 34.20178 | 34017 ft | 409 kts | 308° |
| 2026-04-30 22:08 | 39.22086 | 34.14598 | 34021 ft | 411 kts | 308° |
| 2026-04-30 22:09 | 39.25775 | 34.09042 | 34029 ft | 411 kts | 307° |
| 2026-04-30 22:09 | 39.29475 | 34.03388 | 34029 ft | 411 kts | 307° |
| 2026-04-30 22:10 | 39.33118 | 33.97767 | 34026 ft | 412 kts | 307° |
| 2026-04-30 22:10 | 39.36775 | 33.92100 | 34022 ft | 410 kts | 307° |
| 2026-04-30 22:11 | 39.42222 | 33.83628 | 34014 ft | 410 kts | 307° |
| 2026-04-30 22:12 | 39.45849 | 33.77973 | 34010 ft | 409 kts | 307° |
| 2026-04-30 22:12 | 39.49428 | 33.72280 | 34006 ft | 409 kts | 306° |
| 2026-04-30 22:13 | 39.52985 | 33.66526 | 34006 ft | 410 kts | 306° |
| 2026-04-30 22:13 | 39.56544 | 33.60760 | 34011 ft | 409 kts | 306° |
| 2026-04-30 22:14 | 39.59922 | 33.54852 | 34010 ft | 408 kts | 301° |
| 2026-04-30 22:14 | 39.62962 | 33.48708 | 34010 ft | 407 kts | 300° |
| 2026-04-30 22:15 | 39.65981 | 33.42491 | 34007 ft | 407 kts | 300° |
| 2026-04-30 22:15 | 39.69036 | 33.36270 | 34007 ft | 407 kts | 300° |
| 2026-04-30 22:16 | 39.72094 | 33.30083 | 34008 ft | 407 kts | 300° |
| 2026-04-30 22:17 | 39.78214 | 33.17712 | 34015 ft | 407 kts | 300° |
| 2026-04-30 22:17 | 39.82787 | 33.08444 | 34018 ft | 407 kts | 300° |
| 2026-04-30 22:18 | 39.87345 | 32.99182 | 34015 ft | 405 kts | 300° |
| 2026-04-30 22:19 | 39.90818 | 32.93374 | 34003 ft | 412 kts | 316° |
| 2026-04-30 22:19 | 39.93275 | 32.91347 | 34003 ft | 420 kts | 332° |
| 2026-04-30 22:19 | 39.99112 | 32.89973 | 33995 ft | 433 kts | 356° |
| 2026-04-30 22:20 | 40.02078 | 32.90391 | 33987 ft | 426 kts | 10° |
| 2026-04-30 22:20 | 40.07211 | 32.93903 | 33977 ft | 407 kts | 32° |
| 2026-04-30 22:20 | 40.09422 | 32.96061 | 33978 ft | 394 kts | 34° |
| 2026-04-30 22:21 | 40.11565 | 32.98218 | 33974 ft | 380 kts | 34° |
| 2026-04-30 22:21 | 40.13630 | 33.00287 | 33859 ft | 377 kts | 33° |
| 2026-04-30 22:21 | 40.17872 | 33.04405 | 33870 ft | 379 kts | 32° |
| 2026-04-30 22:22 | 40.19994 | 33.06437 | 34003 ft | 381 kts | 32° |
| 2026-04-30 22:22 | 40.22119 | 33.08471 | 34163 ft | 382 kts | 32° |
| 2026-04-30 22:22 | 40.24284 | 33.10548 | 34328 ft | 383 kts | 32° |
| 2026-04-30 22:22 | 40.26315 | 33.12814 | 34278 ft | 393 kts | 46° |
| 2026-04-30 22:23 | 40.27891 | 33.15764 | 34319 ft | 394 kts | 57° |
| 2026-04-30 22:23 | 40.29385 | 33.18729 | 34383 ft | 392 kts | 48° |
| 2026-04-30 22:23 | 40.31324 | 33.21137 | 34241 ft | 386 kts | 26° |
| 2026-04-30 22:23 | 40.33784 | 33.22373 | 34126 ft | 369 kts | 2° |
| 2026-04-30 22:24 | 40.36264 | 33.22379 | 34226 ft | 356 kts | 345° |
| 2026-04-30 22:24 | 40.38657 | 33.21594 | 34345 ft | 350 kts | 333° |
| 2026-04-30 22:24 | 40.40899 | 33.20345 | 34449 ft | 349 kts | 327° |
| 2026-04-30 22:24 | 40.42939 | 33.18712 | 34551 ft | 344 kts | 314° |
| 2026-04-30 22:25 | 40.44508 | 33.16391 | 34462 ft | 337 kts | 297° |
| 2026-04-30 22:25 | 40.45484 | 33.13658 | 34523 ft | 326 kts | 285° |
| 2026-04-30 22:25 | 40.46081 | 33.10807 | 34649 ft | 325 kts | 279° |
| 2026-04-30 22:25 | 40.46323 | 33.07846 | 34675 ft | 327 kts | 266° |
| 2026-04-30 22:26 | 40.44987 | 33.02241 | 34589 ft | 323 kts | 242° |
| 2026-04-30 22:26 | 40.43767 | 32.99790 | 34705 ft | 325 kts | 234° |
| 2026-04-30 22:26 | 40.42147 | 32.97679 | 34644 ft | 338 kts | 219° |
| 2026-04-30 22:27 | 40.40045 | 32.96216 | 34662 ft | 344 kts | 205° |
| 2026-04-30 22:27 | 40.37709 | 32.95392 | 34781 ft | 347 kts | 196° |
| 2026-04-30 22:27 | 40.32762 | 32.95715 | 34712 ft | 371 kts | 165° |
| 2026-04-30 22:28 | 40.28472 | 32.99510 | 34817 ft | 382 kts | 139° |
| 2026-04-30 22:28 | 40.26811 | 33.02262 | 34776 ft | 394 kts | 123° |
| 2026-04-30 22:29 | 40.23505 | 33.12144 | 34907 ft | 399 kts | 106° |
| 2026-04-30 22:29 | 40.23138 | 33.15762 | 34821 ft | 402 kts | 90° |
| 2026-04-30 22:30 | 40.27443 | 33.28418 | 34764 ft | 388 kts | 30° |
| 2026-04-30 22:31 | 40.34710 | 33.30075 | 34664 ft | 352 kts | 326° |
| 2026-04-30 22:32 | 40.37155 | 33.22385 | 34721 ft | 330 kts | 249° |
| 2026-04-30 22:32 | 40.33859 | 33.18325 | 34561 ft | 342 kts | 205° |
| 2026-04-30 22:33 | 40.26770 | 33.16513 | 34768 ft | 356 kts | 189° |
| 2026-04-30 22:33 | 40.21841 | 33.17582 | 34590 ft | 372 kts | 158° |
| 2026-04-30 22:34 | 40.16248 | 33.24771 | 34809 ft | 393 kts | 121° |
| 2026-04-30 22:35 | 40.15114 | 33.31715 | 34696 ft | 397 kts | 85° |
| 2026-04-30 22:36 | 40.20034 | 33.43892 | 34733 ft | 384 kts | 26° |
| 2026-04-30 22:36 | 40.22371 | 33.45472 | 34849 ft | 381 kts | 18° |
| 2026-04-30 22:37 | 40.29896 | 33.46021 | 34900 ft | 354 kts | 334° |
| 2026-04-30 22:37 | 40.32123 | 33.44767 | 35034 ft | 350 kts | 327° |
| 2026-04-30 22:37 | 40.35816 | 33.40857 | 35073 ft | 343 kts | 301° |
| 2026-04-30 22:38 | 40.37790 | 33.35335 | 35251 ft | 331 kts | 284° |
| 2026-04-30 22:38 | 40.38088 | 33.29398 | 35284 ft | 334 kts | 258° |
| 2026-04-30 22:39 | 40.37476 | 33.26509 | 35318 ft | 330 kts | 251° |
| 2026-04-30 22:39 | 40.33386 | 33.19271 | 35378 ft | 343 kts | 219° |
| 2026-04-30 22:40 | 40.27650 | 33.13887 | 35690 ft | 343 kts | 220° |
| 2026-04-30 22:41 | 40.21718 | 33.08544 | 35575 ft | 349 kts | 209° |
| 2026-04-30 22:41 | 40.16858 | 33.07472 | 35596 ft | 362 kts | 181° |
| 2026-04-30 22:42 | 40.07797 | 33.13499 | 35574 ft | 394 kts | 128° |
| 2026-04-30 22:43 | 40.05423 | 33.19919 | 35677 ft | 401 kts | 104° |
| 2026-04-30 22:43 | 40.05739 | 33.27174 | 35464 ft | 404 kts | 70° |
| 2026-04-30 22:44 | 40.08280 | 33.33493 | 35513 ft | 395 kts | 46° |
| 2026-04-30 22:45 | 40.16980 | 33.42153 | 35811 ft | 395 kts | 31° |
| 2026-04-30 22:45 | 40.21493 | 33.46155 | 35990 ft | 394 kts | 24° |
| 2026-04-30 22:46 | 40.26660 | 33.47819 | 35847 ft | 377 kts | 351° |
| 2026-04-30 22:47 | 40.35549 | 33.42655 | 35951 ft | 352 kts | 304° |
| 2026-04-30 22:47 | 40.38014 | 33.37260 | 35922 ft | 339 kts | 287° |
| 2026-04-30 22:48 | 40.38550 | 33.31226 | 35948 ft | 332 kts | 264° |
| 2026-04-30 22:49 | 40.36187 | 33.22736 | 35979 ft | 339 kts | 232° |
| 2026-04-30 22:49 | 40.30823 | 33.16696 | 36222 ft | 347 kts | 219° |
| 2026-04-30 22:50 | 40.22934 | 33.09409 | 36634 ft | 350 kts | 214° |
| 2026-04-30 22:51 | 40.18213 | 33.07392 | 36542 ft | 374 kts | 188° |
| 2026-04-30 22:51 | 40.13014 | 33.08196 | 36840 ft | 385 kts | 168° |
| 2026-04-30 22:52 | 40.10511 | 33.09636 | 36807 ft | 399 kts | 152° |
| 2026-04-30 22:52 | 40.06656 | 33.14924 | 37175 ft | 410 kts | 125° |
| 2026-04-30 22:53 | 40.04684 | 33.21941 | 37211 ft | 425 kts | 94° |
| 2026-04-30 22:53 | 40.05729 | 33.29423 | 37622 ft | 421 kts | 67° |
| 2026-04-30 22:53 | 40.07011 | 33.32819 | 37687 ft | 422 kts | 54° |
| 2026-04-30 22:54 | 40.11264 | 33.37933 | 37959 ft | 414 kts | 32° |
| 2026-04-30 22:55 | 40.18284 | 33.44463 | 38239 ft | 418 kts | 32° |
| 2026-04-30 22:55 | 40.23232 | 33.48219 | 38593 ft | 407 kts | 13° |
| 2026-04-30 22:56 | 40.28711 | 33.48599 | 38745 ft | 388 kts | 342° |
| 2026-04-30 22:56 | 40.35627 | 33.44027 | 38930 ft | 369 kts | 306° |
| 2026-04-30 22:57 | 40.38222 | 33.38448 | 39226 ft | 358 kts | 289° |
| 2026-04-30 22:57 | 40.39041 | 33.32110 | 39104 ft | 359 kts | 263° |
| 2026-04-30 22:58 | 40.37836 | 33.25811 | 39331 ft | 358 kts | 247° |
| 2026-04-30 22:59 | 40.32718 | 33.18702 | 39648 ft | 363 kts | 219° |
| 2026-04-30 22:59 | 40.26585 | 33.12845 | 39818 ft | 365 kts | 220° |